Flight Number: EUR3050 Duration: 11:00
Departure: Dublin Airport (EIDW) at 07:00 Distance: 4515 Nm
Arrival: San Diego Int'l Airport (KSAN) at 18:00 Equipment: B777

Weather Information
Dublin Airport, Ireland (EIDW) 53-26N 006-15W 85M Nov 18, 2017 - 07:00 AM EST / 2017.11.18 1200 UTC
Wind: from the W (270 degrees) at 9 MPH (8 KT) (direction variable):0
Visibility: greater than 7 mile(s):0
Sky conditions: mostly cloudy Temperature: 46 F (8 C) Dew Point: 42 F (6 C) Relative Humidity: 87% Pressure (altimeter): 30.21 in. Hg (1023 hPa)
ob: EIDW 181200Z 27008KT 250V320 9999 FEW020 BKN070 08/06 Q1023 NOSIG cycle: 12
Sunrise: 08:01 Sunset: 16:18 (UTC)

SAN DIEGO INTERNATIONAL \LINDBERGH FLD, CA, United States (KSAN) 32-44N 117-11W 12M Nov 18, 2017 - 06:51 AM EST / 2017.11.18 1151 UTC
Wind: Calm:0
Visibility: 10 mile(s):0
Sky conditions: clear Temperature: 57.9 F (14.4 C) Dew Point: 54.0 F (12.2 C) Relative Humidity: 86% Pressure (altimeter): 30.12 in. Hg (1019 hPa) Pressure tendency: 0.00 inches (0.1 hPa) higher than three hours ago
ob: KSAN 181151Z 00000KT 10SM CLR 14/12 A3012 RMK AO2 SLP199 T01440122 10178 20144 50001 cycle: 12
Sunrise: 14:25 Sunset: 00:42 (UTC)

TAF:2017/11/18 12:39 TAF KSAN 181136Z 1812/1918 VRB03KT P6SM FEW010 TEMPO 1813/1817 P6SM BKN008 FM181700 VRB04KT P6SM SCT010 FM182000 30008KT P6SM SKC FM190100 VRB04KT P6SM FEW005

This route has never been flown.

Route map